Time;durP1;ratioP1;P1;durP2;ratioP2;P2;SDS_P1;SDS_P2;PMS_P1;PMS_P2;Temp;Humidity;BMP_temperature;BMP_pressure;BME280_temperature;BME280_humidity;BME280_pressure;Samples;Min_cycle;Max_cycle;Signal;HPM_P1;HPM_P2
2023/09/04 00:00:05;;;;;;;5.10;4.70;;;;;;;18.36;79.65;100641.36;84237;283;22551;-62
2023/09/04 00:02:13;;;;;;;3.50;3.30;;;;;;;18.32;80.27;100644.98;84164;283;22648;-62
2023/09/04 00:04:15;;;;;;;4.70;4.30;;;;;;;18.29;80.98;100646.74;84057;283;137293;-63
2023/09/04 00:06:17;;;;;;;6.50;4.40;;;;;;;18.26;81.93;100649.95;84196;283;24489;-64
2023/09/04 00:08:19;;;;;;;4.70;3.90;;;;;;;18.23;82.24;100651.81;84183;283;137231;-60
2023/09/04 00:10:21;;;;;;;7.00;4.20;;;;;;;18.22;82.99;100652.50;84348;283;24972;-62
2023/09/04 00:12:25;;;;;;;5.40;4.90;;;;;;;18.22;82.57;100656.81;84162;283;137651;-62
2023/09/04 00:14:27;;;;;;;4.40;4.00;;;;;;;18.19;83.11;100658.61;84109;284;24622;-60
2023/09/04 00:16:29;;;;;;;4.40;4.10;;;;;;;18.17;83.54;100661.55;84056;283;138099;-59
2023/09/04 00:18:33;;;;;;;4.90;4.50;;;;;;;18.15;83.13;100658.67;84220;283;25151;-61
2023/09/04 00:20:36;;;;;;;3.90;3.60;;;;;;;18.11;82.24;100660.06;84079;272;137150;-60
2023/09/04 00:22:39;;;;;;;3.50;3.30;;;;;;;18.13;81.05;100658.79;84107;284;25206;-63
2023/09/04 00:24:40;;;;;;;4.00;3.50;;;;;;;18.13;80.31;100661.23;84179;283;136999;-64
2023/09/04 00:26:42;;;;;;;3.40;3.20;;;;;;;18.13;80.14;100665.00;84316;283;22655;-64
2023/09/04 00:28:44;;;;;;;5.20;4.70;;;;;;;18.14;80.19;100667.66;84127;283;136519;-59
2023/09/04 00:30:47;;;;;;;4.30;3.90;;;;;;;18.14;80.84;100665.82;84023;284;25148;-62
2023/09/04 00:32:49;;;;;;;5.60;5.20;;;;;;;18.16;81.07;100671.55;84161;283;137245;-62
2023/09/04 00:34:51;;;;;;;5.20;4.80;;;;;;;18.19;81.96;100669.80;84099;281;22575;-60
2023/09/04 00:36:53;;;;;;;4.40;3.90;;;;;;;18.21;82.64;100671.57;84140;282;137024;-64
2023/09/04 00:38:55;;;;;;;6.10;4.80;;;;;;;18.22;82.92;100669.73;84124;282;25283;-62
2023/09/04 00:40:56;;;;;;;4.50;4.10;;;;;;;18.26;83.17;100673.52;84124;283;137078;-63
2023/09/04 00:42:58;;;;;;;5.90;4.30;;;;;;;18.30;83.42;100669.98;84062;284;24128;-62
2023/09/04 00:45:00;;;;;;;4.60;4.20;;;;;;;18.35;83.26;100666.03;84043;284;137187;-61
2023/09/04 00:47:03;;;;;;;4.80;4.50;;;;;;;18.39;82.94;100667.06;84247;284;22792;-61
2023/09/04 00:49:05;;;;;;;4.90;4.50;;;;;;;18.41;82.83;100656.28;84118;282;137145;-61
2023/09/04 00:51:07;;;;;;;6.40;5.80;;;;;;;18.44;82.50;100661.95;84230;270;22641;-61
2023/09/04 00:53:10;;;;;;;3.90;3.60;;;;;;;18.44;81.54;100662.11;84203;282;136713;-60
2023/09/04 00:55:12;;;;;;;4.40;4.10;;;;;;;18.43;80.94;100664.83;84256;283;23736;-62
2023/09/04 00:57:15;;;;;;;5.30;4.80;;;;;;;18.40;80.48;100667.95;84112;283;136276;-62
2023/09/04 00:59:18;;;;;;;3.60;3.40;;;;;;;18.34;79.81;100668.43;84363;283;22655;-61
2023/09/04 01:01:21;;;;;;;5.00;3.80;;;;;;;18.27;78.16;100669.32;84205;283;136300;-61
2023/09/04 01:03:23;;;;;;;4.80;4.40;;;;;;;18.23;78.05;100672.45;84271;284;25264;-61
2023/09/04 01:05:28;;;;;;;5.50;5.10;;;;;;;18.21;79.34;100677.02;84183;283;137946;-62
2023/09/04 01:07:31;;;;;;;4.90;4.50;;;;;;;18.13;79.97;100666.50;84428;283;23903;-61
2023/09/04 01:09:33;;;;;;;4.30;3.90;;;;;;;18.17;80.11;100676.48;84033;284;136383;-61
2023/09/04 01:11:48;;;;;;;4.00;3.70;;;;;;;18.07;79.39;100675.73;84226;283;23125;-62
2023/09/04 01:13:51;;;;;;;;;;;;;;;18.16;77.77;100679.32;84264;284;137117;-62
2023/09/04 01:15:55;;;;;;;3.50;3.00;;;;;;;18.20;76.75;100673.87;84142;285;24963;-62
2023/09/04 01:17:58;;;;;;;3.40;3.10;;;;;;;18.20;76.35;100673.61;84094;284;136185;-61
2023/09/04 01:20:21;;;;;;;3.40;3.20;;;;;;;18.20;75.46;100672.90;84414;284;22508;-61
2023/09/04 01:22:23;;;;;;;3.60;3.40;;;;;;;18.22;74.68;100673.29;84175;283;24102;-62
2023/09/04 01:24:26;;;;;;;3.20;3.00;;;;;;;18.20;74.29;100673.61;84039;283;137850;-59
2023/09/04 01:26:36;;;;;;;3.40;3.10;;;;;;;18.20;74.00;100671.55;84216;283;23036;-61
2023/09/04 01:28:56;;;;;;;4.10;3.70;;;;;;;18.20;73.15;100671.45;84156;283;136620;-62
2023/09/04 01:31:11;;;;;;;3.50;3.30;;;;;;;18.20;72.69;100675.39;84175;283;25341;-60
2023/09/04 01:33:19;;;;;;;3.60;3.40;;;;;;;18.21;72.72;100671.14;84224;283;136724;-60
2023/09/04 01:35:23;;;;;;;3.40;3.20;;;;;;;18.23;72.03;100673.90;84055;284;22598;-62
2023/09/04 01:37:26;;;;;;;4.00;3.60;;;;;;;18.24;71.63;100673.10;84217;284;136128;-61
2023/09/04 01:39:29;;;;;;;3.30;3.10;;;;;;;18.20;71.94;100669.67;84353;283;23217;-62
2023/09/04 01:41:31;;;;;;;4.00;3.70;;;;;;;18.21;71.98;100673.19;84167;283;136498;-62
2023/09/04 01:43:34;;;;;;;3.90;3.60;;;;;;;18.21;71.75;100669.08;84160;283;24207;-61
2023/09/04 01:45:37;;;;;;;4.10;3.70;;;;;;;18.21;71.67;100671.85;83996;283;138028;-61
2023/09/04 01:47:41;;;;;;;3.80;3.50;;;;;;;18.19;71.53;100670.92;84071;283;22746;-60
2023/09/04 01:49:43;;;;;;;3.30;3.10;;;;;;;18.21;71.16;100672.77;84061;279;136790;-63
2023/09/04 01:51:46;;;;;;;3.30;3.10;;;;;;;18.25;71.38;100675.13;84163;283;22600;-63
2023/09/04 01:53:48;;;;;;;4.90;3.20;;;;;;;18.25;71.31;100675.20;84319;283;136696;-62
2023/09/04 01:55:49;;;;;;;4.00;3.70;;;;;;;18.23;71.56;100677.63;84244;282;22577;-62
2023/09/04 01:57:52;;;;;;;5.70;3.60;;;;;;;18.23;71.43;100677.94;84139;283;135953;-63
2023/09/04 01:59:53;;;;;;;3.10;2.90;;;;;;;18.20;71.49;100677.27;84302;283;23302;-61
2023/09/04 02:01:56;;;;;;;3.50;3.20;;;;;;;18.21;71.88;100678.58;84170;283;135906;-60
2023/09/04 02:03:58;;;;;;;3.90;3.10;;;;;;;18.09;72.79;100680.34;84198;283;25160;-61
2023/09/04 02:08:20;;;;;;;4.40;4.00;;;;;;;17.84;74.79;100678.73;82798;306;546555;-61
2023/09/04 02:10:23;;;;;;;3.80;3.40;;;;;;;17.86;75.40;100683.02;83865;292;22566;-62
2023/09/04 02:12:27;;;;;;;4.20;3.10;;;;;;;17.83;75.65;100682.16;83729;292;136385;-62
2023/09/04 02:14:29;;;;;;;3.50;3.20;;;;;;;17.90;75.36;100688.35;83856;293;22573;-63
2023/09/04 02:16:30;;;;;;;4.00;3.60;;;;;;;17.91;75.53;100693.06;83612;292;136978;-61
2023/09/04 02:18:32;;;;;;;3.70;3.20;;;;;;;17.84;75.78;100687.80;83681;293;22561;-61
2023/09/04 02:20:34;;;;;;;3.80;3.30;;;;;;;17.75;75.92;100691.35;83420;293;136153;-60
2023/09/04 02:22:36;;;;;;;4.20;3.90;;;;;;;17.62;76.13;100691.22;83354;292;846526;-61
2023/09/04 02:24:38;;;;;;;3.90;3.60;;;;;;;17.53;76.90;100693.39;83673;289;135876;-60
2023/09/04 02:26:40;;;;;;;3.60;3.30;;;;;;;17.45;77.28;100692.08;83846;291;25393;-60
2023/09/04 02:28:41;;;;;;;3.60;3.30;;;;;;;17.44;77.58;100694.92;83724;289;136013;-60
2023/09/04 02:30:44;;;;;;;4.60;4.20;;;;;;;17.41;77.58;100692.17;83780;288;22577;-61
2023/09/04 02:32:46;;;;;;;3.10;2.90;;;;;;;17.39;77.68;100697.55;83857;289;136785;-64
2023/09/04 02:34:48;;;;;;;4.20;3.40;;;;;;;17.36;77.70;100693.93;83914;290;25647;-61
2023/09/04 02:36:50;;;;;;;4.10;3.40;;;;;;;17.36;77.84;100692.19;83689;290;136339;-61
2023/09/04 02:38:52;;;;;;;3.80;3.20;;;;;;;17.26;78.34;100682.55;83793;289;22607;-64
2023/09/04 02:40:54;;;;;;;4.70;3.70;;;;;;;17.25;78.70;100685.35;83770;289;137419;-61
2023/09/04 02:42:56;;;;;;;5.00;3.40;;;;;;;17.21;79.02;100682.49;83863;289;22849;-62
2023/09/04 02:44:57;;;;;;;4.10;3.70;;;;;;;17.21;79.07;100682.48;83800;288;137955;-63
2023/09/04 02:46:59;;;;;;;4.20;3.90;;;;;;;17.17;79.61;100679.58;83914;289;22551;-60
2023/09/04 02:49:01;;;;;;;3.80;3.50;;;;;;;17.12;79.98;100677.27;84038;286;138344;-60
2023/09/04 02:51:03;;;;;;;3.60;3.30;;;;;;;17.07;80.22;100676.41;84166;287;25271;-60
2023/09/04 02:53:04;;;;;;;3.90;3.60;;;;;;;17.06;80.59;100681.43;84032;286;136954;-61
2023/09/04 02:55:08;;;;;;;8.50;3.90;;;;;;;17.02;80.76;100684.96;84080;286;22659;-60
2023/09/04 02:57:10;;;;;;;3.40;3.20;;;;;;;16.93;81.52;100685.46;84211;287;136921;-61
2023/09/04 02:59:11;;;;;;;5.00;3.50;;;;;;;16.90;81.71;100686.44;83951;286;25245;-60
2023/09/04 03:01:15;;;;;;;4.50;3.70;;;;;;;16.81;82.10;100686.05;83969;286;137540;-62
2023/09/04 03:03:19;;;;;;;3.60;3.30;;;;;;;16.80;82.50;100685.48;84216;286;22552;-60
2023/09/04 03:05:25;;;;;;;4.40;4.00;;;;;;;16.82;82.68;100689.73;83938;286;136751;-61
2023/09/04 03:07:27;;;;;;;3.50;3.20;;;;;;;16.86;82.28;100692.64;83942;287;22550;-60
2023/09/04 03:09:31;;;;;;;4.10;3.80;;;;;;;16.92;82.56;100693.13;84007;287;136793;-61
2023/09/04 03:11:33;;;;;;;3.50;3.20;;;;;;;16.97;82.07;100696.02;84258;286;22678;-61
2023/09/04 03:13:37;;;;;;;4.20;3.90;;;;;;;17.01;81.75;100693.41;84012;286;136645;-59
2023/09/04 03:15:39;;;;;;;3.60;3.40;;;;;;;17.03;81.66;100696.55;84131;287;22820;-61
2023/09/04 03:17:42;;;;;;;4.10;3.80;;;;;;;17.05;81.94;100699.46;84017;285;138109;-59
2023/09/04 03:19:44;;;;;;;4.90;4.20;;;;;;;17.08;81.85;100702.34;83939;287;22595;-61
2023/09/04 03:21:47;;;;;;;4.60;4.30;;;;;;;17.08;82.02;100700.36;83857;287;136007;-60
2023/09/04 03:23:51;;;;;;;4.70;4.20;;;;;;;17.07;82.39;100699.29;84202;285;22579;-63
2023/09/04 03:25:53;;;;;;;5.70;4.20;;;;;;;17.03;82.56;100693.61;84116;287;135976;-64
2023/09/04 03:27:55;;;;;;;4.80;3.90;;;;;;;16.98;83.11;100692.88;84160;286;22597;-61
2023/09/04 03:29:57;;;;;;;4.00;3.70;;;;;;;16.96;83.65;100694.17;83884;287;137909;-62
2023/09/04 03:31:59;;;;;;;4.40;4.10;;;;;;;16.96;84.06;100697.28;84254;286;22680;-59
2023/09/04 03:34:01;;;;;;;4.70;4.40;;;;;;;16.95;84.14;100697.23;84016;286;136605;-60
2023/09/04 03:36:04;;;;;;;5.80;5.00;;;;;;;16.95;84.33;100693.42;84047;286;138709;-63
2023/09/04 03:38:06;;;;;;;3.90;3.70;;;;;;;16.95;84.63;100692.69;84161;286;25403;-60
2023/09/04 03:40:22;;;;;;;5.40;4.30;;;;;;;16.97;84.68;100692.92;83933;286;136095;-61
2023/09/04 03:42:23;;;;;;;4.80;4.50;;;;;;;16.91;84.34;100687.92;83983;287;25227;-60
2023/09/04 03:44:26;;;;;;;6.10;4.70;;;;;;;16.97;84.37;100701.37;83893;285;136691;-61
2023/09/04 03:46:28;;;;;;;7.30;5.00;;;;;;;16.98;84.30;100700.41;83995;286;25203;-62
2023/09/04 03:48:31;;;;;;;5.20;4.70;;;;;;;17.01;83.66;100705.85;83913;285;136702;-62
2023/09/04 03:50:35;;;;;;;5.90;5.00;;;;;;;17.06;83.56;100704.82;84116;286;24847;-60
2023/09/04 03:52:38;;;;;;;5.60;4.80;;;;;;;17.16;83.29;100707.65;84126;286;137825;-61
2023/09/04 03:54:40;;;;;;;5.40;5.00;;;;;;;17.31;82.80;100706.25;84172;286;24080;-59
2023/09/04 03:56:41;;;;;;;4.30;4.00;;;;;;;17.53;81.55;100707.79;84017;286;136742;-61
2023/09/04 03:58:43;;;;;;;4.90;4.50;;;;;;;17.73;80.30;100707.38;84064;288;26311;-61
2023/09/04 04:00:55;;;;;;;6.70;5.10;;;;;;;17.85;79.47;100708.70;83884;288;135660;-61
2023/09/04 04:02:57;;;;;;;5.30;4.50;;;;;;;17.83;79.24;100708.27;84072;287;24123;-60
2023/09/04 04:04:59;;;;;;;7.40;4.70;;;;;;;17.89;79.37;100713.89;84135;286;137566;-61
2023/09/04 04:07:01;;;;;;;5.50;4.70;;;;;;;18.04;78.86;100714.35;83853;287;24145;-61
2023/09/04 04:09:03;;;;;;;5.40;4.70;;;;;;;18.29;78.15;100718.52;83643;286;135884;-61
2023/09/04 04:11:06;;;;;;;5.10;4.80;;;;;;;18.62;76.59;100720.54;84088;288;25387;-63
2023/09/04 04:13:09;;;;;;;4.90;4.30;;;;;;;18.92;74.80;100717.92;83962;287;137846;-60
2023/09/04 04:15:11;;;;;;;4.00;3.70;;;;;;;19.17;73.66;100714.98;83908;286;24060;-60
2023/09/04 04:17:13;;;;;;;7.10;4.00;;;;;;;19.51;72.23;100716.86;84062;287;136174;-61
2023/09/04 04:19:16;;;;;;;4.90;4.60;;;;;;;19.87;70.72;100722.70;83923;286;22583;-63
2023/09/04 04:21:18;;;;;;;6.00;4.80;;;;;;;20.10;69.28;100723.71;83955;286;136803;-58
2023/09/04 04:23:19;;;;;;;4.70;4.30;;;;;;;20.13;68.62;100723.72;83893;287;22555;-62
2023/09/04 04:25:21;;;;;;;5.00;4.60;;;;;;;20.01;68.15;100721.44;83809;286;136098;-65
2023/09/04 04:27:23;;;;;;;5.50;4.50;;;;;;;19.70;68.89;100719.13;83973;286;25191;-61
2023/09/04 04:29:24;;;;;;;4.40;4.00;;;;;;;19.31;70.39;100711.17;83671;287;135989;-62
2023/09/04 04:31:26;;;;;;;9.40;4.60;;;;;;;19.05;72.14;100719.14;83768;287;22554;-61
2023/09/04 04:33:28;;;;;;;4.90;4.50;;;;;;;18.77;73.45;100718.86;83757;287;136268;-61
2023/09/04 04:35:30;;;;;;;6.60;4.30;;;;;;;18.55;74.31;100722.15;83757;287;24034;-59
2023/09/04 04:37:32;;;;;;;6.40;4.60;;;;;;;18.33;75.66;100718.42;83643;287;137199;-58
2023/09/04 04:39:34;;;;;;;5.60;5.10;;;;;;;18.22;76.43;100720.82;83902;287;22564;-57
2023/09/04 04:41:36;;;;;;;5.30;4.90;;;;;;;18.05;77.38;100694.56;83849;274;136462;-61
2023/09/04 04:43:39;;;;;;;4.50;4.20;;;;;;;18.26;77.42;100722.42;84157;285;22669;-59
2023/09/04 04:45:41;;;;;;;7.50;4.60;;;;;;;18.24;77.33;100721.88;83914;284;136850;-58
2023/09/04 04:47:43;;;;;;;4.50;4.20;;;;;;;18.13;77.86;100722.69;84017;284;22582;-58
2023/09/04 04:49:44;;;;;;;5.10;4.70;;;;;;;18.04;78.38;100722.11;83996;284;136782;-58
2023/09/04 04:51:46;;;;;;;6.00;4.50;;;;;;;17.97;78.91;100719.77;83924;285;22521;-61
2023/09/04 04:53:48;;;;;;;5.20;4.70;;;;;;;17.92;79.24;100723.55;83918;286;136241;-59
2023/09/04 04:55:50;;;;;;;6.20;5.60;;;;;;;17.89;79.64;100726.04;84046;285;22690;-60
2023/09/04 04:57:53;;;;;;;5.80;5.20;;;;;;;17.85;79.80;100729.69;83908;285;136315;-60
2023/09/04 04:59:55;;;;;;;5.20;4.80;;;;;;;17.78;80.36;100729.18;84222;284;25137;-60
2023/09/04 05:01:58;;;;;;;6.00;5.50;;;;;;;17.64;81.22;100730.64;83921;284;136377;-61
2023/09/04 05:04:00;;;;;;;5.10;4.50;;;;;;;17.54;81.90;100729.41;84012;285;22609;-61
2023/09/04 05:06:02;;;;;;;6.10;5.50;;;;;;;17.50;82.33;100725.48;83889;285;136859;-61
2023/09/04 05:08:05;;;;;;;5.20;4.80;;;;;;;17.60;82.33;100731.68;83854;287;137000;-71
2023/09/04 05:10:08;;;;;;;8.00;5.10;;;;;;;17.72;82.13;100724.85;84660;286;25268;-74
2023/09/04 05:12:10;;;;;;;5.00;4.70;;;;;;;18.05;81.42;100727.95;84273;284;136918;-72
2023/09/04 05:14:12;;;;;;;6.30;5.70;;;;;;;18.46;79.73;100731.68;84304;284;23873;-70
2023/09/04 05:16:15;;;;;;;6.10;5.00;;;;;;;18.98;77.73;100734.80;84475;285;137776;-70
2023/09/04 05:18:16;;;;;;;6.40;5.30;;;;;;;19.53;74.68;100738.67;84433;288;23282;-74
2023/09/04 05:20:18;;;;;;;8.40;5.50;;;;;;;20.01;72.71;100741.73;84273;286;136547;-69
2023/09/04 05:22:21;;;;;;;5.50;5.00;;;;;;;20.34;69.75;100744.45;84156;287;22554;-70
2023/09/04 05:24:23;;;;;;;5.20;4.70;;;;;;;20.45;67.91;100742.88;84167;287;135785;-70
2023/09/04 05:26:25;;;;;;;4.10;3.80;;;;;;;20.45;68.24;100744.70;84428;285;22550;-70
2023/09/04 05:28:27;;;;;;;7.10;5.50;;;;;;;20.41;67.87;100747.25;84429;284;136946;-71
2023/09/04 05:30:28;;;;;;;5.60;5.00;;;;;;;20.35;68.34;100747.55;84452;284;22635;-69
2023/09/04 05:32:30;;;;;;;5.90;5.40;;;;;;;20.34;68.78;100753.08;84435;285;136128;-72
2023/09/04 05:34:34;;;;;;;5.50;5.00;;;;;;;20.40;68.86;100749.77;84351;285;22549;-71
2023/09/04 05:36:36;;;;;;;5.70;5.20;;;;;;;20.51;68.23;100748.88;84217;287;137141;-71
2023/09/04 05:38:38;;;;;;;6.50;6.00;;;;;;;20.57;67.71;100752.88;84350;287;22590;-69
2023/09/04 05:40:40;;;;;;;5.30;4.90;;;;;;;20.61;67.14;100752.55;84615;285;137364;-71
2023/09/04 05:42:41;;;;;;;8.20;5.50;;;;;;;20.68;66.62;100756.23;84579;286;22606;-70
2023/09/04 05:44:43;;;;;;;6.00;4.80;;;;;;;20.76;66.34;100756.90;84284;286;135994;-70
2023/09/04 05:46:45;;;;;;;5.30;4.80;;;;;;;20.90;66.18;100760.70;84582;286;22563;-70
2023/09/04 05:48:47;;;;;;;6.70;6.10;;;;;;;21.09;65.75;100763.33;84311;287;138213;-71
2023/09/04 05:50:49;;;;;;;6.10;5.20;;;;;;;21.30;64.50;100761.57;84380;285;25610;-71
2023/09/04 05:52:53;;;;;;;6.10;4.60;;;;;;;21.51;63.65;100763.95;84208;286;136135;-67
2023/09/04 05:54:54;;;;;;;6.50;5.00;;;;;;;21.69;63.38;100764.96;84038;285;25270;-69
2023/09/04 05:56:56;;;;;;;6.30;4.20;;;;;;;21.96;62.14;100765.27;83928;286;137500;-69
2023/09/04 05:58:58;;;;;;;5.80;5.30;;;;;;;22.19;61.18;100765.11;84008;284;22646;-68
2023/09/04 06:01:00;;;;;;;5.40;4.40;;;;;;;22.35;60.35;100762.80;83924;285;136448;-70
2023/09/04 06:03:02;;;;;;;5.40;4.90;;;;;;;22.35;59.53;100747.80;84045;286;25337;-69
2023/09/04 06:05:04;;;;;;;5.70;5.20;;;;;;;22.51;58.89;100768.11;83918;285;136332;-66
2023/09/04 06:07:10;;;;;;;4.90;4.40;;;;;;;22.50;58.21;100771.73;84034;287;22593;-67
2023/09/04 06:09:12;;;;;;;5.30;4.80;;;;;;;22.50;58.30;100770.54;84038;285;140120;-68
2023/09/04 06:11:15;;;;;;;5.10;4.50;;;;;;;22.60;58.51;100768.23;83983;285;25372;-66
2023/09/04 06:13:17;;;;;;;6.00;4.30;;;;;;;22.78;57.88;100773.17;84002;285;136485;-65
2023/09/04 06:15:19;;;;;;;5.40;4.40;;;;;;;22.84;57.38;100772.46;84063;285;24366;-67
2023/09/04 06:17:20;;;;;;;5.20;4.80;;;;;;;22.82;56.86;100777.23;83841;285;137867;-69
2023/09/04 06:19:22;;;;;;;8.80;4.60;;;;;;;22.91;57.20;100773.82;83951;285;25183;-67
2023/09/04 06:21:24;;;;;;;5.50;5.00;;;;;;;23.16;56.88;100777.73;83769;285;137814;-71
2023/09/04 06:23:26;;;;;;;6.50;5.50;;;;;;;23.51;56.04;100775.88;84009;286;22706;-70
2023/09/04 06:25:28;;;;;;;5.30;3.90;;;;;;;23.88;54.56;100774.65;83762;286;136170;-67
2023/09/04 06:27:30;;;;;;;6.10;4.90;;;;;;;24.16;52.98;100774.26;83952;285;22549;-66
2023/09/04 06:29:31;;;;;;;6.30;4.80;;;;;;;24.26;53.34;100773.78;83843;285;136437;-67
2023/09/04 06:31:33;;;;;;;6.50;4.40;;;;;;;24.48;53.00;100779.67;84033;285;24100;-67
2023/09/04 06:33:37;;;;;;;4.40;3.80;;;;;;;24.84;51.61;100778.50;83885;284;136635;-67
2023/09/04 06:35:40;;;;;;;4.70;3.50;;;;;;;25.14;50.40;100778.04;83986;284;22549;-67
2023/09/04 06:37:41;;;;;;;7.10;4.00;;;;;;;25.21;50.19;100782.61;83805;285;137845;-69
2023/09/04 06:39:43;;;;;;;6.60;2.70;;;;;;;25.15;50.09;100788.40;83990;285;25159;-67
2023/09/04 06:41:46;;;;;;;3.80;2.70;;;;;;;25.03;49.27;100786.77;83849;285;136459;-66
2023/09/04 06:43:48;;;;;;;4.00;2.50;;;;;;;25.09;48.40;100786.17;83872;286;23808;-70
2023/09/04 06:45:49;;;;;;;4.60;2.40;;;;;;;25.07;48.09;100781.48;83826;285;136112;-66
2023/09/04 06:47:52;;;;;;;2.00;1.90;;;;;;;24.92;48.67;100782.87;83863;285;25185;-68
2023/09/04 06:49:54;;;;;;;3.10;2.50;;;;;;;24.87;48.85;100781.93;83809;285;136246;-69
2023/09/04 06:51:56;;;;;;;4.70;3.70;;;;;;;24.74;49.18;100785.64;84353;285;22553;-66
2023/09/04 06:53:58;;;;;;;4.60;2.60;;;;;;;24.43;49.84;100784.48;83839;286;136347;-66
2023/09/04 06:56:00;;;;;;;4.00;2.40;;;;;;;24.12;50.36;100791.30;84036;285;22571;-66
2023/09/04 06:58:03;;;;;;;3.30;2.80;;;;;;;23.83;51.45;100787.20;84430;274;138547;-69
2023/09/04 07:00:07;;;;;;;2.80;2.50;;;;;;;23.57;52.89;100788.16;84277;287;136946;-66
2023/09/04 07:02:10;;;;;;;5.90;2.90;;;;;;;23.35;53.84;100791.84;84456;286;22592;-67
2023/09/04 07:04:11;;;;;;;5.20;3.40;;;;;;;23.26;54.08;100794.00;84122;285;138860;-63
2023/09/04 07:06:13;;;;;;;4.20;3.80;;;;;;;23.19;54.34;100791.90;84132;282;22564;-63
2023/09/04 07:08:16;;;;;;;3.70;3.10;;;;;;;23.11;54.56;100792.88;84074;282;137215;-64
2023/09/04 07:10:22;;;;;;;3.70;2.90;;;;;;;22.99;55.23;100795.58;84097;285;22684;-63
2023/09/04 07:12:30;;;;;;;3.00;2.70;;;;;;;22.87;55.26;100796.23;84048;272;136450;-63
2023/09/04 07:14:34;;;;;;;3.10;2.50;;;;;;;22.69;55.96;100796.73;84216;283;22570;-63
2023/09/04 07:16:37;;;;;;;3.10;2.80;;;;;;;22.61;56.71;100802.05;84592;283;136906;-64
2023/09/04 07:18:50;;;;;;;12.80;3.00;;;;;;;22.48;57.50;100797.41;84223;282;22558;-65
2023/09/04 07:20:53;;;;;;;3.70;3.40;;;;;;;22.43;57.79;100797.73;84098;282;136473;-62
2023/09/04 07:22:55;;;;;;;2.80;2.50;;;;;;;22.38;57.81;100800.41;84069;283;25293;-64
2023/09/04 07:25:18;;;;;;;3.90;2.60;;;;;;;22.29;58.28;100798.95;83983;283;135931;-62
2023/09/04 07:27:20;;;;;;;3.20;2.90;;;;;;;22.27;59.03;100799.31;84022;282;22654;-65
2023/09/04 07:29:22;;;;;;;3.50;3.00;;;;;;;22.31;59.32;100802.02;83893;282;136977;-65
2023/09/04 07:31:24;;;;;;;3.20;2.90;;;;;;;22.38;59.01;100807.89;84338;283;22641;-64
2023/09/04 07:33:26;;;;;;;4.60;3.20;;;;;;;22.37;59.46;100806.20;83905;284;136430;-62
2023/09/04 07:35:28;;;;;;;3.70;3.40;;;;;;;22.35;59.98;100808.14;84171;283;22708;-62
2023/09/04 07:37:31;;;;;;;2.80;2.60;;;;;;;22.37;59.83;100811.90;84025;282;136551;-62
2023/09/04 07:39:33;;;;;;;4.50;3.10;;;;;;;22.33;59.19;100815.41;83992;282;22572;-59
2023/09/04 07:41:35;;;;;;;5.00;3.00;;;;;;;22.26;58.95;100816.17;83937;270;136280;-63
2023/09/04 07:43:37;;;;;;;3.80;2.80;;;;;;;22.13;59.70;100813.31;84031;283;22730;-64
2023/09/04 07:45:39;;;;;;;6.70;3.60;;;;;;;22.03;60.40;100811.44;83973;283;136434;-68
2023/09/04 07:47:41;;;;;;;3.00;2.60;;;;;;;21.97;60.95;100815.27;84122;282;25194;-64
2023/09/04 07:49:43;;;;;;;2.90;2.60;;;;;;;21.92;61.19;100811.80;84040;282;136548;-62
2023/09/04 07:51:46;;;;;;;2.80;2.50;;;;;;;21.82;61.34;100803.64;84502;282;24147;-63
2023/09/04 07:53:47;;;;;;;4.60;3.10;;;;;;;21.80;61.41;100805.95;84028;282;136573;-65
2023/09/04 07:55:51;;;;;;;5.90;3.20;;;;;;;21.87;61.55;100814.77;84093;282;25166;-71
2023/09/04 07:57:55;;;;;;;3.60;3.30;;;;;;;21.90;61.56;100813.84;85044;282;136173;-69
2023/09/04 07:59:59;;;;;;;3.10;2.90;;;;;;;21.96;61.58;100823.36;84091;282;24024;-72
2023/09/04 08:02:01;;;;;;;5.10;2.40;;;;;;;22.10;61.29;100824.29;84026;292;136505;-72
2023/09/04 08:04:05;;;;;;;5.60;2.60;;;;;;;22.19;61.21;100823.67;83883;285;136725;-70
2023/09/04 08:06:07;;;;;;;3.20;2.70;;;;;;;22.18;60.96;100815.65;85465;282;26131;-71
2023/09/04 08:08:10;;;;;;;5.00;2.70;;;;;;;22.28;60.97;100827.40;84285;282;136650;-72
2023/09/04 08:10:13;;;;;;;3.70;3.10;;;;;;;22.29;60.56;100822.95;84127;282;25176;-71
2023/09/04 08:12:15;;;;;;;6.10;2.80;;;;;;;22.30;60.22;100822.59;84067;283;136305;-72
2023/09/04 08:14:17;;;;;;;2.50;2.30;;;;;;;22.33;60.22;100824.04;84098;283;25302;-72
2023/09/04 08:16:20;;;;;;;4.40;3.10;;;;;;;22.40;60.53;100825.58;85682;284;136907;-72
2023/09/04 08:18:22;;;;;;;4.20;3.00;;;;;;;22.50;60.16;100828.79;84729;282;25158;-71
2023/09/04 08:20:23;;;;;;;2.70;2.50;;;;;;;22.58;59.01;100826.95;84014;282;136576;-72
2023/09/04 08:22:25;;;;;;;4.40;2.60;;;;;;;22.60;57.47;100828.23;84163;282;25196;-73
2023/09/04 08:24:27;;;;;;;2.00;1.90;;;;;;;22.61;56.59;100828.36;83980;282;159008;-70
2023/09/04 08:26:29;;;;;;;3.20;2.00;;;;;;;22.63;55.76;100827.60;84031;282;22579;-71
2023/09/04 08:28:31;;;;;;;2.40;1.90;;;;;;;22.64;56.08;100825.55;84156;282;136287;-71
2023/09/04 08:30:34;;;;;;;4.20;2.00;;;;;;;22.64;56.12;100828.48;84144;283;22569;-72
2023/09/04 08:32:36;;;;;;;2.30;2.00;;;;;;;22.66;56.30;100827.14;83888;283;137830;-71
2023/09/04 08:34:38;;;;;;;1.90;1.70;;;;;;;22.68;56.06;100829.23;84110;282;22566;-71
2023/09/04 08:36:40;;;;;;;3.20;2.30;;;;;;;22.75;55.73;100830.55;84016;282;136249;-72
2023/09/04 08:38:42;;;;;;;1.50;1.40;;;;;;;22.86;55.53;100829.71;84126;282;22795;-72
2023/09/04 08:40:45;;;;;;;4.50;1.80;;;;;;;22.99;55.31;100826.41;84049;282;136611;-72
2023/09/04 08:42:49;;;;;;;1.80;1.60;;;;;;;23.15;54.78;100827.10;84158;281;22601;-72
2023/09/04 08:44:51;;;;;;;2.10;1.70;;;;;;;23.22;52.58;100823.35;84140;281;138153;-72
2023/09/04 08:46:57;;;;;;;6.50;2.10;;;;;;;23.32;51.86;100826.42;84805;284;25177;-72
2023/09/04 08:49:02;;;;;;;2.30;1.80;;;;;;;23.29;51.74;100822.42;83977;283;137267;-71
2023/09/04 08:51:04;;;;;;;;;;;;;;;23.31;51.19;100822.82;84075;283;22544;-71
2023/09/04 08:53:06;;;;;;;1.60;1.40;;;;;;;23.37;50.84;100822.41;84294;282;124884;-72
2023/09/04 08:55:08;;;;;;;4.10;2.00;;;;;;;23.46;50.44;100822.20;85063;282;22725;-72
2023/09/04 08:57:10;;;;;;;4.20;2.90;;;;;;;23.53;50.44;100822.79;83921;282;136549;-71
2023/09/04 08:59:12;;;;;;;2.00;1.50;;;;;;;23.62;50.13;100823.34;84456;282;24101;-69
2023/09/04 09:01:16;;;;;;;2.70;1.60;;;;;;;23.69;50.16;100818.53;84000;282;136789;-69
2023/09/04 09:03:18;;;;;;;7.30;1.60;;;;;;;23.77;49.76;100821.45;85632;282;22912;-74
2023/09/04 09:05:21;;;;;;;2.10;1.20;;;;;;;23.84;48.65;100819.55;84095;282;136242;-72
2023/09/04 09:07:27;;;;;;;1.40;1.10;;;;;;;23.91;48.42;100827.70;84168;282;22653;-70
2023/09/04 09:09:30;;;;;;;1.80;1.70;;;;;;;23.95;48.07;100826.08;84502;282;136206;-73
2023/09/04 09:11:32;;;;;;;4.00;1.30;;;;;;;23.96;48.22;100822.05;84888;282;22644;-73
2023/09/04 09:13:34;;;;;;;2.50;2.20;;;;;;;23.98;48.21;100825.17;83929;283;136237;-71
2023/09/04 09:15:36;;;;;;;3.90;0.90;;;;;;;23.96;48.54;100829.63;84061;283;25248;-72
2023/09/04 09:17:56;;;;;;;2.90;0.80;;;;;;;24.02;48.08;100834.11;83991;283;136117;-71
2023/09/04 09:19:57;;;;;;;1.70;1.10;;;;;;;24.02;47.36;100825.91;84066;283;22644;-72
2023/09/04 09:22:14;;;;;;;2.00;1.00;;;;;;;23.97;47.78;100825.16;83982;283;135230;-71
2023/09/04 09:24:17;;;;;;;2.60;0.90;;;;;;;23.87;46.96;100817.55;84955;282;136959;-70
2023/09/04 09:26:20;;;;;;;2.80;1.40;;;;;;;23.80;46.70;100824.11;84081;283;25221;-71
2023/09/04 09:28:22;;;;;;;0.80;0.80;;;;;;;23.72;46.93;100830.02;83997;283;136889;-66
2023/09/04 09:30:24;;;;;;;0.90;0.80;;;;;;;23.64;46.78;100831.34;84350;284;22622;-70
2023/09/04 09:32:28;;;;;;;4.40;1.10;;;;;;;23.56;46.88;100831.24;84015;282;136225;-69
2023/09/04 09:34:33;;;;;;;0.80;0.80;;;;;;;23.47;47.69;100823.57;84304;283;22548;-70
2023/09/04 09:36:36;;;;;;;1.40;1.30;;;;;;;23.40;47.77;100829.02;84005;282;138397;-70